Time;durP1;ratioP1;P1;durP2;ratioP2;P2;SDS_P1;SDS_P2;PMS_P1;PMS_P2;Temp;Humidity;BMP_temperature;BMP_pressure;BME280_temperature;BME280_humidity;BME280_pressure;Samples;Min_cycle;Max_cycle;Signal;HPM_P1;HPM_P2
2023/03/26 00:01:39;;;;;;;0.30;0.20;;;6.80;99.90;;;;;;5075749;28;20448;-84
2023/03/26 00:04:07;;;;;;;0.30;0.30;;;6.90;99.90;;;;;;5075664;28;20462;-83
2023/03/26 00:06:37;;;;;;;0.40;0.30;;;6.80;99.90;;;;;;5075913;28;20556;-83
2023/03/26 00:09:06;;;;;;;0.50;0.50;;;6.90;99.90;;;;;;5075158;28;20977;-78
2023/03/26 00:11:34;;;;;;;0.30;0.30;;;6.90;99.90;;;;;;5075549;28;20449;-78
2023/03/26 00:14:01;;;;;;;0.30;0.30;;;7.00;99.90;;;;;;5075500;28;20540;-78
2023/03/26 00:16:30;;;;;;;0.50;0.43;;;7.00;99.90;;;;;;5075139;28;20449;-78
2023/03/26 00:19:00;;;;;;;0.30;0.30;;;7.00;99.90;;;;;;5075018;28;20466;-78
2023/03/26 00:21:29;;;;;;;0.30;0.30;;;7.10;99.90;;;;;;5075374;28;20452;-78
2023/03/26 00:23:57;;;;;;;0.60;0.60;;;7.10;99.90;;;;;;5074964;28;20460;-78
2023/03/26 00:26:24;;;;;;;0.50;0.30;;;7.10;99.90;;;;;;5074945;28;21002;-78
2023/03/26 00:28:50;;;;;;;0.30;0.30;;;7.10;99.90;;;;;;5075086;28;20485;-78
2023/03/26 00:31:18;;;;;;;4.00;0.57;;;7.10;99.90;;;;;;5075164;28;20948;-78
2023/03/26 00:33:46;;;;;;;0.30;0.30;;;7.10;99.90;;;;;;5074867;28;20434;-78
2023/03/26 00:36:18;;;;;;;0.47;0.40;;;7.10;99.90;;;;;;5074972;28;20457;-78
2023/03/26 00:38:46;;;;;;;0.50;0.50;;;7.00;99.90;;;;;;5074963;28;20467;-78
2023/03/26 00:41:21;;;;;;;0.30;0.30;;;7.00;99.90;;;;;;5074880;28;20449;-78
2023/03/26 00:43:49;;;;;;;0.30;0.30;;;7.00;99.90;;;;;;5074977;28;20524;-78
2023/03/26 00:46:16;;;;;;;0.50;0.50;;;7.00;99.90;;;;;;5074852;28;20449;-78
2023/03/26 00:48:43;;;;;;;0.30;0.30;;;7.00;99.90;;;;;;5074491;28;20489;-78
2023/03/26 00:51:14;;;;;;;0.30;0.30;;;7.00;99.90;;;;;;5074816;28;20434;-78
2023/03/26 00:53:42;;;;;;;0.97;0.30;;;7.00;99.90;;;;;;5074735;28;20433;-78
2023/03/26 00:56:09;;;;;;;0.30;0.30;;;7.00;99.90;;;;;;5074634;28;20452;-78
2023/03/26 00:58:37;;;;;;;0.30;0.30;;;7.00;99.90;;;;;;5074537;28;20519;-78
2023/03/26 01:01:06;;;;;;;0.70;0.40;;;7.00;99.90;;;;;;5074561;28;20807;-78
2023/03/26 01:03:35;;;;;;;0.30;0.30;;;6.90;99.90;;;;;;5074073;28;20445;-78
2023/03/26 01:06:03;;;;;;;0.30;0.30;;;6.80;99.90;;;;;;5074467;28;20445;-78
2023/03/26 01:08:32;;;;;;;0.40;0.30;;;6.80;99.90;;;;;;5074307;28;20516;-78
2023/03/26 01:11:06;;;;;;;1.63;0.60;;;6.80;99.90;;;;;;5074140;28;20932;-78
2023/03/26 01:13:36;;;;;;;0.37;0.37;;;6.80;99.90;;;;;;5074322;28;20795;-78
2023/03/26 01:16:05;;;;;;;0.80;0.80;;;6.80;99.90;;;;;;5074453;28;20445;-78
2023/03/26 01:18:39;;;;;;;0.60;0.30;;;6.80;99.90;;;;;;5074184;28;20991;-78
2023/03/26 01:21:08;;;;;;;3.13;0.77;;;6.90;99.90;;;;;;5074643;28;20429;-78
2023/03/26 01:23:45;;;;;;;0.40;0.40;;;6.90;99.90;;;;;;5073798;28;20810;-78
2023/03/26 01:26:24;;;;;;;0.70;0.70;;;6.90;99.90;;;;;;5074100;28;20433;-78
2023/03/26 01:28:57;;;;;;;0.50;0.40;;;6.90;99.90;;;;;;5073957;28;20489;-78
2023/03/26 01:31:30;;;;;;;0.33;0.30;;;6.80;99.90;;;;;;5073942;28;20465;-78
2023/03/26 01:34:02;;;;;;;0.50;0.50;;;6.80;99.90;;;;;;5073948;28;20810;-78
2023/03/26 01:36:38;;;;;;;0.30;0.27;;;6.80;99.90;;;;;;5073972;28;20437;-78
2023/03/26 01:39:11;;;;;;;0.40;0.40;;;6.80;99.90;;;;;;5073529;28;21006;-78
2023/03/26 01:41:45;;;;;;;0.93;0.43;;;6.80;99.90;;;;;;5073846;28;20429;-84
2023/03/26 01:44:16;;;;;;;0.30;0.30;;;6.90;99.90;;;;;;5073521;28;20817;-83
2023/03/26 01:46:44;;;;;;;0.30;0.20;;;6.90;99.90;;;;;;5073779;28;20426;-84
2023/03/26 01:49:12;;;;;;;3.17;0.40;;;7.00;99.90;;;;;;5073348;28;20558;-83
2023/03/26 01:51:41;;;;;;;0.50;0.40;;;7.00;99.90;;;;;;5073773;28;20486;-83
2023/03/26 01:54:13;;;;;;;0.30;0.20;;;7.00;99.90;;;;;;5074286;28;20511;-83
2023/03/26 01:56:50;;;;;;;1.80;0.60;;;7.00;99.90;;;;;;5073713;28;20466;-84
2023/03/26 01:59:31;;;;;;;0.30;0.30;;;7.00;99.90;;;;;;5073317;28;20987;-84
2023/03/26 02:02:03;;;;;;;0.30;0.30;;;7.00;99.90;;;;;;5073375;28;20414;-85
2023/03/26 02:04:35;;;;;;;0.60;0.30;;;6.90;99.90;;;;;;5073592;28;20437;-84
2023/03/26 02:07:06;;;;;;;0.40;0.40;;;7.00;99.90;;;;;;5073558;28;20414;-83
2023/03/26 02:09:44;;;;;;;0.63;0.50;;;7.00;99.90;;;;;;5073122;28;20485;-84
2023/03/26 02:12:14;;;;;;;3.00;0.47;;;6.90;99.90;;;;;;5073553;28;20437;-83
2023/03/26 02:14:41;;;;;;;0.30;0.30;;;6.90;99.90;;;;;;5073120;28;21017;-84
2023/03/26 02:17:09;;;;;;;0.30;0.30;;;6.90;99.90;;;;;;5072525;28;20799;-83
2023/03/26 02:19:40;;;;;;;0.60;0.50;;;6.90;99.90;;;;;;5072935;28;20462;-84
2023/03/26 02:22:09;;;;;;;0.30;0.30;;;6.90;99.90;;;;;;5073419;28;20487;-84
2023/03/26 02:24:36;;;;;;;0.63;0.50;;;6.90;99.90;;;;;;5073297;28;20441;-83
2023/03/26 02:27:06;;;;;;;0.50;0.40;;;6.90;99.90;;;;;;5073312;28;20441;-84
2023/03/26 02:29:36;;;;;;;0.30;0.30;;;6.90;99.90;;;;;;5073139;28;20543;-84
2023/03/26 02:32:03;;;;;;;0.40;0.40;;;6.80;99.90;;;;;;5073835;28;20506;-84
2023/03/26 02:34:30;;;;;;;0.30;0.30;;;6.80;99.90;;;;;;5073245;28;20456;-84
2023/03/26 02:36:57;;;;;;;0.30;0.30;;;6.80;99.90;;;;;;5073244;28;20456;-83
2023/03/26 02:39:25;;;;;;;0.40;0.40;;;6.80;99.90;;;;;;5073114;28;20468;-84
2023/03/26 02:41:51;;;;;;;0.30;0.30;;;6.80;99.90;;;;;;5073195;28;20457;-83
2023/03/26 02:44:18;;;;;;;0.40;0.30;;;6.80;99.90;;;;;;5073414;28;20433;-84
2023/03/26 02:46:46;;;;;;;0.43;0.43;;;6.80;99.90;;;;;;5073120;28;20463;-83
2023/03/26 02:49:13;;;;;;;0.30;0.20;;;6.80;99.90;;;;;;5072723;28;21001;-83
2023/03/26 02:51:39;;;;;;;0.40;0.30;;;6.80;99.90;;;;;;5073991;28;20429;-83
2023/03/26 02:54:06;;;;;;;0.40;0.40;;;6.80;99.90;;;;;;5073036;28;20488;-84
2023/03/26 02:56:33;;;;;;;0.30;0.30;;;6.80;99.90;;;;;;5073016;28;20445;-84
2023/03/26 02:59:00;;;;;;;0.30;0.30;;;6.80;99.90;;;;;;5072742;28;20465;-83
2023/03/26 03:01:29;;;;;;;0.30;0.20;;;6.90;99.90;;;;;;5073042;28;20450;-81
2023/03/26 03:03:57;;;;;;;0.33;0.30;;;6.90;99.90;;;;;;5072943;28;20453;-80
2023/03/26 03:06:25;;;;;;;0.33;0.33;;;6.90;99.90;;;;;;5073254;28;20932;-81
2023/03/26 03:08:53;;;;;;;0.30;0.30;;;6.90;99.90;;;;;;5072738;28;20476;-81
2023/03/26 03:11:22;;;;;;;1.03;0.53;;;6.90;99.90;;;;;;5072867;28;20484;-81
2023/03/26 03:13:49;;;;;;;1.87;0.60;;;6.90;99.90;;;;;;5073538;28;20457;-81
2023/03/26 03:16:16;;;;;;;0.33;0.30;;;6.90;99.90;;;;;;5072453;28;20863;-81
2023/03/26 03:18:43;;;;;;;0.83;0.83;;;6.90;99.90;;;;;;5072712;28;20481;-81
2023/03/26 03:21:11;;;;;;;0.40;0.40;;;7.00;99.90;;;;;;5072789;28;20456;-81
2023/03/26 03:23:38;;;;;;;0.30;0.30;;;7.00;99.90;;;;;;5072653;28;20434;-81
2023/03/26 03:26:05;;;;;;;0.30;0.30;;;7.00;99.90;;;;;;5072418;28;20449;-81
2023/03/26 03:28:32;;;;;;;0.33;0.27;;;7.00;99.90;;;;;;5075708;28;20475;-81
2023/03/26 03:30:58;;;;;;;0.40;0.30;;;7.00;99.90;;;;;;5076138;28;20868;-81
2023/03/26 03:33:25;;;;;;;0.60;0.40;;;7.00;99.90;;;;;;5076248;28;20450;-81
2023/03/26 03:35:52;;;;;;;0.30;0.30;;;7.00;99.90;;;;;;5075969;28;20459;-81
2023/03/26 03:38:20;;;;;;;0.30;0.30;;;7.00;99.90;;;;;;5076119;28;20456;-81
2023/03/26 03:40:47;;;;;;;0.40;0.30;;;7.00;99.90;;;;;;5075812;28;20441;-81
2023/03/26 03:43:13;;;;;;;0.50;0.40;;;7.00;99.90;;;;;;5077436;28;20449;-81
2023/03/26 03:45:40;;;;;;;0.30;0.30;;;7.00;99.90;;;;;;5078459;28;20441;-80
2023/03/26 03:48:07;;;;;;;1.27;0.50;;;7.00;99.90;;;;;;5077622;28;20495;-81
2023/03/26 03:50:34;;;;;;;0.30;0.30;;;6.90;99.90;;;;;;5075831;28;20481;-82
2023/03/26 03:53:01;;;;;;;2.40;0.50;;;7.00;99.90;;;;;;5075924;28;20452;-82
2023/03/26 03:55:29;;;;;;;0.47;0.40;;;7.00;99.90;;;;;;5075897;28;20452;-82
2023/03/26 03:57:57;;;;;;;0.57;0.43;;;7.10;99.90;;;;;;5076388;28;20457;-82
2023/03/26 04:00:23;;;;;;;0.30;0.30;;;7.00;99.90;;;;;;5075726;28;20572;-82
2023/03/26 04:02:53;;;;;;;0.40;0.40;;;7.00;99.90;;;;;;5075762;28;20474;-82
2023/03/26 04:05:20;;;;;;;0.40;0.30;;;7.00;99.90;;;;;;5075784;28;20457;-82
2023/03/26 04:07:46;;;;;;;0.30;0.30;;;7.00;99.90;;;;;;5076322;28;20844;-82
2023/03/26 04:10:15;;;;;;;0.40;0.40;;;7.00;99.90;;;;;;5075487;28;20904;-82
2023/03/26 04:12:44;;;;;;;0.30;0.30;;;7.00;99.90;;;;;;5075818;28;20441;-82
2023/03/26 04:15:11;;;;;;;2.87;0.40;;;7.00;99.90;;;;;;5075533;28;20445;-82
2023/03/26 04:17:41;;;;;;;0.30;0.30;;;6.90;99.90;;;;;;5075463;28;20813;-82
2023/03/26 04:20:13;;;;;;;0.40;0.33;;;6.90;99.90;;;;;;5075451;28;20832;-82
2023/03/26 04:22:41;;;;;;;0.30;0.30;;;6.90;99.90;;;;;;5075401;28;20801;-82
2023/03/26 04:25:08;;;;;;;0.40;0.40;;;7.00;99.90;;;;;;5075375;28;20438;-81
2023/03/26 04:27:35;;;;;;;0.30;0.30;;;6.90;99.90;;;;;;5074955;28;20445;-82
2023/03/26 04:30:05;;;;;;;0.40;0.33;;;7.00;99.90;;;;;;5074820;28;20992;-82
2023/03/26 04:32:33;;;;;;;2.87;0.53;;;7.00;99.90;;;;;;5077607;28;20454;-82
2023/03/26 04:35:02;;;;;;;0.40;0.40;;;7.00;99.90;;;;;;5077887;28;20503;-82
2023/03/26 04:37:33;;;;;;;0.30;0.30;;;6.90;99.90;;;;;;5077027;28;20449;-82
2023/03/26 04:40:01;;;;;;;0.30;0.30;;;6.90;99.90;;;;;;5074676;28;20450;-82
2023/03/26 04:42:29;;;;;;;0.40;0.40;;;6.90;99.90;;;;;;5074978;28;20451;-82
2023/03/26 04:44:58;;;;;;;1.23;0.70;;;6.90;99.90;;;;;;5074858;28;20453;-82
2023/03/26 04:47:27;;;;;;;0.30;0.30;;;7.00;99.90;;;;;;5075129;28;20849;-82
2023/03/26 04:49:54;;;;;;;0.40;0.40;;;7.00;99.90;;;;;;5073884;28;20485;-82
2023/03/26 04:52:21;;;;;;;0.60;0.40;;;7.00;99.90;;;;;;5073859;28;20804;-82
2023/03/26 04:54:48;;;;;;;0.80;0.70;;;7.00;99.90;;;;;;5073838;28;20445;-82
2023/03/26 04:57:20;;;;;;;0.50;0.50;;;7.00;99.90;;;;;;5073851;28;20434;-81
2023/03/26 04:59:47;;;;;;;0.30;0.30;;;7.10;99.90;;;;;;5073750;28;20480;-81
2023/03/26 05:02:14;;;;;;;0.40;0.40;;;7.10;99.90;;;;;;5073743;28;20446;-82
2023/03/26 05:04:42;;;;;;;0.40;0.30;;;7.10;99.90;;;;;;5073651;28;20460;-82
2023/03/26 05:07:10;;;;;;;0.30;0.30;;;7.10;99.90;;;;;;5073598;28;20461;-82
2023/03/26 05:09:37;;;;;;;0.40;0.40;;;7.20;99.90;;;;;;5073434;28;20469;-82
2023/03/26 05:12:04;;;;;;;0.30;0.30;;;7.20;99.90;;;;;;5073533;28;20456;-82
2023/03/26 05:14:31;;;;;;;0.50;0.50;;;7.20;99.90;;;;;;5073521;28;20540;-82
2023/03/26 05:16:57;;;;;;;0.30;0.30;;;7.20;99.90;;;;;;5073340;28;20867;-82
2023/03/26 05:19:24;;;;;;;0.30;0.30;;;7.20;99.90;;;;;;5073931;28;20536;-82
2023/03/26 05:21:52;;;;;;;0.40;0.40;;;7.20;99.90;;;;;;5073426;28;20477;-82
2023/03/26 05:24:19;;;;;;;1.03;0.57;;;7.20;99.90;;;;;;5073045;28;20453;-82
2023/03/26 05:26:46;;;;;;;0.30;0.30;;;7.20;99.90;;;;;;5073281;28;20476;-82
2023/03/26 05:29:14;;;;;;;1.60;0.50;;;7.20;99.90;;;;;;5072914;28;20999;-82
2023/03/26 05:31:41;;;;;;;0.40;0.30;;;7.20;99.90;;;;;;5073134;28;20557;-82
2023/03/26 05:34:08;;;;;;;0.80;0.57;;;7.20;99.90;;;;;;5073161;28;20461;-82
2023/03/26 05:36:35;;;;;;;0.30;0.20;;;7.20;99.90;;;;;;5073191;28;20449;-82
2023/03/26 05:39:03;;;;;;;0.83;0.53;;;7.20;99.90;;;;;;5073048;28;20473;-82
2023/03/26 05:41:30;;;;;;;0.30;0.30;;;7.20;99.90;;;;;;5072864;28;20430;-82
2023/03/26 05:43:57;;;;;;;1.60;0.40;;;7.20;99.90;;;;;;5073112;28;20461;-82
2023/03/26 05:46:24;;;;;;;0.90;0.40;;;7.20;99.90;;;;;;5072995;28;20449;-82
2023/03/26 05:48:51;;;;;;;0.40;0.40;;;7.30;99.90;;;;;;5036091;28;1037682;-82
2023/03/26 05:51:18;;;;;;;0.30;0.27;;;7.20;99.90;;;;;;5074084;28;20977;-82
2023/03/26 05:53:44;;;;;;;0.30;0.30;;;7.30;99.90;;;;;;5073552;28;20453;-81
2023/03/26 05:56:13;;;;;;;0.30;0.30;;;7.30;99.90;;;;;;5073248;28;20869;-82
2023/03/26 05:58:40;;;;;;;0.60;0.40;;;7.30;99.90;;;;;;5073526;28;20462;-82
2023/03/26 06:01:09;;;;;;;0.40;0.40;;;7.30;99.90;;;;;;5073732;28;20570;-82
2023/03/26 06:03:38;;;;;;;1.63;0.80;;;7.30;99.90;;;;;;5073310;28;20434;-82
2023/03/26 06:06:08;;;;;;;0.30;0.30;;;7.30;99.90;;;;;;5073209;28;20450;-82
2023/03/26 06:08:34;;;;;;;0.30;0.30;;;7.40;99.90;;;;;;5073763;28;20474;-81
2023/03/26 06:11:03;;;;;;;0.30;0.30;;;7.40;99.90;;;;;;5073392;28;20481;-82
2023/03/26 06:13:31;;;;;;;0.60;0.40;;;7.40;99.90;;;;;;5073421;28;20457;-82
2023/03/26 06:15:58;;;;;;;0.40;0.40;;;7.50;99.90;;;;;;5073410;28;20445;-82
2023/03/26 06:18:25;;;;;;;0.97;0.30;;;7.60;99.90;;;;;;5073322;28;20445;-82
2023/03/26 06:20:52;;;;;;;0.30;0.27;;;7.60;99.90;;;;;;5073340;28;20454;-82
2023/03/26 06:23:19;;;;;;;1.00;0.37;;;7.60;99.90;;;;;;5073351;28;20453;-82
2023/03/26 06:25:46;;;;;;;0.40;0.40;;;7.60;99.90;;;;;;5072981;28;20882;-82
2023/03/26 06:28:13;;;;;;;0.57;0.40;;;7.60;99.90;;;;;;5073134;28;20506;-82
2023/03/26 06:30:41;;;;;;;0.40;0.30;;;7.70;99.90;;;;;;5073223;28;20485;-82
2023/03/26 06:33:08;;;;;;;0.50;0.50;;;7.60;99.90;;;;;;5073195;28;20450;-82
2023/03/26 06:35:35;;;;;;;0.50;0.40;;;7.60;99.90;;;;;;5072970;28;20441;-82
2023/03/26 06:38:02;;;;;;;0.30;0.23;;;7.60;99.90;;;;;;5073177;28;20441;-82
2023/03/26 06:40:28;;;;;;;0.30;0.30;;;7.60;99.90;;;;;;5072775;28;20449;-82
2023/03/26 06:42:56;;;;;;;0.30;0.30;;;7.50;99.90;;;;;;5073132;28;20839;-82
2023/03/26 06:45:22;;;;;;;0.80;0.80;;;7.40;99.90;;;;;;5073166;28;20442;-82
2023/03/26 06:47:50;;;;;;;0.40;0.40;;;7.40;99.90;;;;;;5072790;28;20959;-82
2023/03/26 06:50:17;;;;;;;1.40;0.50;;;7.30;99.90;;;;;;5072634;28;20493;-82
2023/03/26 06:52:44;;;;;;;0.40;0.37;;;7.20;99.90;;;;;;5073071;28;20449;-82
2023/03/26 06:55:11;;;;;;;0.30;0.30;;;7.20;99.90;;;;;;5073452;28;20527;-82
2023/03/26 06:57:38;;;;;;;0.50;0.40;;;7.20;99.90;;;;;;5072772;28;20430;-82
2023/03/26 07:00:07;;;;;;;0.40;0.40;;;7.10;99.90;;;;;;5072713;28;20460;-82
2023/03/26 07:02:35;;;;;;;0.30;0.30;;;7.10;99.90;;;;;;5074479;28;20453;-82
2023/03/26 07:05:03;;;;;;;0.30;0.30;;;7.10;99.90;;;;;;5076608;28;20430;-82
2023/03/26 07:07:31;;;;;;;0.40;0.40;;;7.10;99.90;;;;;;5076832;28;20449;-81
2023/03/26 07:09:57;;;;;;;0.40;0.30;;;7.10;99.90;;;;;;5078721;28;20470;-82
2023/03/26 07:12:25;;;;;;;0.40;0.40;;;7.10;99.90;;;;;;5078760;28;20979;-83
2023/03/26 07:14:52;;;;;;;0.40;0.30;;;7.10;99.90;;;;;;5079292;28;20485;-83
2023/03/26 07:17:19;;;;;;;0.37;0.30;;;7.00;99.90;;;;;;5078368;28;20461;-81
2023/03/26 07:19:46;;;;;;;0.40;0.40;;;6.90;99.90;;;;;;5076486;28;20560;-82
2023/03/26 07:22:18;;;;;;;0.40;0.40;;;6.90;99.90;;;;;;5076496;28;20456;-81
2023/03/26 07:24:46;;;;;;;0.30;0.30;;;6.80;99.90;;;;;;5076494;28;20445;-82
2023/03/26 07:27:24;;;;;;;0.40;0.40;;;6.80;99.90;;;;;;5076468;28;20433;-82
2023/03/26 07:29:58;;;;;;;0.30;0.30;;;6.70;99.90;;;;;;5076587;28;20461;-81
2023/03/26 07:32:29;;;;;;;0.30;0.20;;;6.60;99.90;;;;;;5076288;28;20473;-81
2023/03/26 07:35:01;;;;;;;0.67;0.40;;;6.60;99.90;;;;;;5076327;28;20444;-81
2023/03/26 07:37:39;;;;;;;0.30;0.30;;;6.60;99.90;;;;;;5076315;28;20460;-81
2023/03/26 07:40:17;;;;;;;2.30;0.50;;;6.50;99.90;;;;;;5076147;28;20468;-81
2023/03/26 07:42:59;;;;;;;0.30;0.30;;;6.50;99.90;;;;;;5076164;28;20505;-81
2023/03/26 07:45:32;;;;;;;0.30;0.30;;;6.50;99.90;;;;;;5076168;28;20438;-82
2023/03/26 07:47:59;;;;;;;0.30;0.30;;;6.40;99.90;;;;;;5076097;28;20452;-81
2023/03/26 07:50:26;;;;;;;0.30;0.30;;;6.40;99.90;;;;;;5075452;28;20492;-81
2023/03/26 07:52:55;;;;;;;1.33;0.40;;;6.30;99.90;;;;;;5075887;28;20461;-81
2023/03/26 07:55:23;;;;;;;0.40;0.40;;;6.30;99.90;;;;;;5075924;28;20495;-81
2023/03/26 07:58:00;;;;;;;0.60;0.60;;;6.40;99.90;;;;;;5075871;28;20433;-81
2023/03/26 08:00:33;;;;;;;0.30;0.30;;;6.40;99.90;;;;;;5075500;28;20465;-80
2023/03/26 08:03:23;;;;;;;1.13;0.37;;;6.50;99.90;;;;;;5075810;28;20422;-81
2023/03/26 08:05:58;;;;;;;0.40;0.37;;;6.50;99.90;;;;;;5075728;28;20436;-81
2023/03/26 08:08:35;;;;;;;0.30;0.30;;;6.40;99.90;;;;;;5075639;28;20479;-81
2023/03/26 08:11:13;;;;;;;0.40;0.37;;;6.40;99.90;;;;;;5075592;28;20836;-81
2023/03/26 08:13:55;;;;;;;3.60;0.50;;;6.50;99.90;;;;;;5074672;28;20449;-81
2023/03/26 08:16:25;;;;;;;0.30;0.30;;;6.50;99.90;;;;;;5075527;28;20807;-81
2023/03/26 08:18:59;;;;;;;0.47;0.40;;;6.50;99.90;;;;;;5075359;28;20469;-81
2023/03/26 08:21:28;;;;;;;0.30;0.30;;;6.50;99.90;;;;;;5075486;28;20434;-81
2023/03/26 08:24:03;;;;;;;0.40;0.30;;;6.50;99.90;;;;;;5075071;28;20949;-80
2023/03/26 08:26:37;;;;;;;0.43;0.43;;;6.50;99.90;;;;;;5075349;28;20425;-81
2023/03/26 08:29:15;;;;;;;0.30;0.30;;;6.60;99.90;;;;;;5075133;28;20476;-81
2023/03/26 08:31:44;;;;;;;0.30;0.30;;;6.70;99.90;;;;;;5075156;28;20505;-80
2023/03/26 08:34:12;;;;;;;0.73;0.50;;;6.70;99.90;;;;;;5075179;28;20453;-81
2023/03/26 08:36:39;;;;;;;2.00;0.50;;;6.70;99.90;;;;;;5074828;28;20980;-81
2023/03/26 08:39:07;;;;;;;0.40;0.37;;;6.80;99.90;;;;;;5075020;28;20477;-80
2023/03/26 08:42:10;;;;;;;0.83;0.40;;;7.00;99.90;;;;;;5075038;28;20445;-81
2023/03/26 08:45:03;;;;;;;0.30;0.30;;;7.20;99.90;;;;;;5075041;28;20920;-81
2023/03/26 08:48:10;;;;;;;0.30;0.30;;;7.40;99.90;;;;;;5047949;28;20848;-79
2023/03/26 08:51:00;;;;;;;3.53;0.50;;;7.40;99.90;;;;;;5074378;28;20475;-79
2023/03/26 08:53:50;;;;;;;4.23;0.77;;;7.40;99.90;;;;;;5074507;28;20906;-80
2023/03/26 08:56:29;;;;;;;0.87;0.40;;;7.50;99.90;;;;;;5074791;28;20457;-81
2023/03/26 08:59:32;;;;;;;0.60;0.60;;;7.50;99.90;;;;;;5074658;28;20480;-81
2023/03/26 09:02:35;;;;;;;0.30;0.30;;;7.50;99.90;;;;;;5074620;28;20434;-81
2023/03/26 09:05:42;;;;;;;0.53;0.53;;;7.70;99.90;;;;;;5074182;28;20880;-81
2023/03/26 09:08:33;;;;;;;0.47;0.40;;;7.90;99.90;;;;;;5074333;28;20434;-80
2023/03/26 09:11:18;;;;;;;0.40;0.40;;;8.00;99.90;;;;;;5074047;28;20980;-80
2023/03/26 09:14:35;;;;;;;2.50;1.40;;;8.40;99.90;;;;;;5074078;28;20438;-80
2023/03/26 09:17:24;;;;;;;0.30;0.30;;;8.90;99.90;;;;;;5074675;28;20462;-80
2023/03/26 09:20:08;;;;;;;0.40;0.33;;;9.50;99.90;;;;;;5074137;28;20462;-80
2023/03/26 09:23:07;;;;;;;0.40;0.40;;;9.80;99.90;;;;;;5074222;28;20770;-80
2023/03/26 09:26:16;;;;;;;0.40;0.33;;;10.60;99.90;;;;;;5073708;28;20462;-80
2023/03/26 09:29:19;;;;;;;0.40;0.33;;;11.50;99.90;;;;;;5073899;28;20461;-81
2023/03/26 09:32:13;;;;;;;0.40;0.30;;;11.90;99.90;;;;;;5073950;28;20622;-80
2023/03/26 09:34:59;;;;;;;0.60;0.40;;;12.60;99.90;;;;;;5073955;28;20487;-80
2023/03/26 09:37:33;;;;;;;0.40;0.40;;;13.60;99.90;;;;;;5073915;28;20480;-82
2023/03/26 09:40:15;;;;;;;0.40;0.30;;;14.30;99.90;;;;;;5073726;28;20520;-80
2023/03/26 09:42:45;;;;;;;0.40;0.30;;;15.10;99.90;;;;;;5073479;28;20430;-80
2023/03/26 09:45:32;;;;;;;0.80;0.60;;;15.20;99.90;;;;;;5073613;28;20457;-81
2023/03/26 09:48:20;;;;;;;0.40;0.40;;;15.00;99.90;;;;;;5073671;28;20445;-80
2023/03/26 09:51:05;;;;;;;0.43;0.40;;;15.80;99.90;;;;;;5063148;28;21014;-81
2023/03/26 09:53:56;;;;;;;0.30;0.30;;;17.10;99.90;;;;;;5073784;28;20417;-81
2023/03/26 09:56:34;;;;;;;0.40;0.30;;;17.10;99.90;;;;;;5073534;28;20449;-81
2023/03/26 09:59:13;;;;;;;0.30;0.30;;;16.50;99.90;;;;;;5073389;28;20469;-81
2023/03/26 10:01:45;;;;;;;0.40;0.40;;;15.80;99.90;;;;;;5073496;28;20426;-81
2023/03/26 10:04:39;;;;;;;0.40;0.30;;;15.00;99.90;;;;;;5073414;28;20429;-81
2023/03/26 10:07:16;;;;;;;0.90;0.30;;;14.30;99.90;;;;;;5073778;28;20454;-81
2023/03/26 10:09:53;;;;;;;0.40;0.30;;;14.10;99.90;;;;;;5073277;28;20465;-82
2023/03/26 10:12:31;;;;;;;2.80;0.40;;;14.20;99.90;;;;;;5073034;28;20477;-82
2023/03/26 10:15:31;;;;;;;5.10;0.40;;;14.40;99.90;;;;;;5073490;28;20461;-82
2023/03/26 10:18:09;;;;;;;0.43;0.37;;;14.80;99.90;;;;;;5073419;28;20469;-82
2023/03/26 10:20:55;;;;;;;0.40;0.40;;;15.50;99.90;;;;;;5073444;28;20466;-82
2023/03/26 10:23:36;;;;;;;2.33;0.40;;;15.70;99.90;;;;;;5073343;28;20506;-82
2023/03/26 10:26:24;;;;;;;0.50;0.50;;;15.50;99.90;;;;;;5073372;28;20430;-82
2023/03/26 10:29:20;;;;;;;0.70;0.40;;;15.20;99.90;;;;;;5073432;28;20468;-82
2023/03/26 10:31:51;;;;;;;0.50;0.30;;;14.70;99.90;;;;;;5071697;28;21018;-82
2023/03/26 10:34:31;;;;;;;2.10;0.50;;;14.50;99.90;;;;;;5073322;28;20441;-82
2023/03/26 10:37:08;;;;;;;0.30;0.30;;;14.70;99.90;;;;;;5073953;28;20467;-82
2023/03/26 10:39:50;;;;;;;0.30;0.30;;;15.40;99.90;;;;;;5077358;28;20461;-82
2023/03/26 10:42:31;;;;;;;0.70;0.40;;;16.20;99.90;;;;;;5077368;28;20791;-82
2023/03/26 10:45:14;;;;;;;0.40;0.30;;;16.80;99.90;;;;;;5078010;28;20449;-82
2023/03/26 10:47:59;;;;;;;0.40;0.30;;;17.40;99.90;;;;;;5077397;28;20816;-82
2023/03/26 10:50:36;;;;;;;0.30;0.30;;;18.40;99.90;;;;;;5076716;28;20484;-82
2023/03/26 10:53:10;;;;;;;0.30;0.30;;;18.80;99.90;;;;;;5077045;28;20469;-82
2023/03/26 10:55:38;;;;;;;0.40;0.30;;;19.40;99.90;;;;;;5077101;28;20441;-81
2023/03/26 10:58:13;;;;;;;0.37;0.30;;;21.00;99.90;;;;;;5077017;28;20453;-82
2023/03/26 11:00:44;;;;;;;0.77;0.30;;;22.10;97.30;;;;;;5077068;28;20428;-82
2023/03/26 11:03:50;;;;;;;3.90;0.30;;;22.30;94.50;;;;;;5076968;28;20840;-82
2023/03/26 11:06:29;;;;;;;1.13;0.30;;;23.20;91.00;;;;;;5068184;28;20459;-82
2023/03/26 11:09:03;;;;;;;0.40;0.37;;;22.50;87.60;;;;;;5076749;28;20469;-82
2023/03/26 11:11:40;;;;;;;0.40;0.30;;;20.50;87.50;;;;;;5076677;28;20433;-82
2023/03/26 11:14:15;;;;;;;0.47;0.30;;;19.50;92.30;;;;;;5076715;28;20438;-83
2023/03/26 11:16:54;;;;;;;0.40;0.30;;;18.00;92.10;;;;;;5076699;28;20523;-83
2023/03/26 11:19:29;;;;;;;0.30;0.30;;;17.20;95.10;;;;;;5076566;28;20449;-82
2023/03/26 11:22:03;;;;;;;0.40;0.30;;;16.50;93.60;;;;;;5076599;28;20433;-82
2023/03/26 11:24:46;;;;;;;0.50;0.40;;;16.00;96.00;;;;;;5076185;28;20429;-82
2023/03/26 11:27:22;;;;;;;0.30;0.30;;;15.70;97.40;;;;;;5076123;28;20897;-82
2023/03/26 11:29:56;;;;;;;0.40;0.30;;;15.50;95.40;;;;;;5076326;28;20464;-82
2023/03/26 11:32:26;;;;;;;0.40;0.30;;;15.20;99.40;;;;;;5076304;28;20503;-81
2023/03/26 11:34:59;;;;;;;0.80;0.40;;;15.00;97.60;;;;;;5076007;28;20788;-82
2023/03/26 11:37:31;;;;;;;0.40;0.40;;;14.90;97.90;;;;;;5076308;28;20438;-82
2023/03/26 11:40:05;;;;;;;2.53;0.40;;;14.90;99.90;;;;;;5076176;28;20481;-82
2023/03/26 11:42:33;;;;;;;0.83;0.53;;;14.80;97.90;;;;;;5076217;28;20425;-82
2023/03/26 11:45:02;;;;;;;0.30;0.30;;;14.80;99.20;;;;;;5076261;28;20608;-82
2023/03/26 11:47:34;;;;;;;0.40;0.40;;;14.80;97.60;;;;;;5075927;28;20452;-82
2023/03/26 11:50:03;;;;;;;0.47;0.40;;;14.70;97.30;;;;;;5075609;28;20477;-82
2023/03/26 11:52:29;;;;;;;5.43;0.50;;;14.80;98.20;;;;;;5075606;28;21008;-82
2023/03/26 11:54:58;;;;;;;0.70;0.40;;;14.80;96.60;;;;;;5075624;28;20461;-82
2023/03/26 11:57:29;;;;;;;0.77;0.40;;;14.70;96.10;;;;;;5075888;28;20450;-82
2023/03/26 12:00:03;;;;;;;0.30;0.30;;;14.70;96.20;;;;;;5075835;28;20497;-82
2023/03/26 12:02:32;;;;;;;0.40;0.37;;;14.50;96.20;;;;;;5075543;28;20503;-82
2023/03/26 12:05:16;;;;;;;0.40;0.30;;;14.50;95.90;;;;;;5076017;28;20453;-81
2023/03/26 12:07:55;;;;;;;0.40;0.30;;;14.40;94.50;;;;;;5075719;28;20528;-82
2023/03/26 12:10:29;;;;;;;0.30;0.30;;;14.30;94.90;;;;;;5076323;28;20819;-81
2023/03/26 12:13:00;;;;;;;0.40;0.30;;;14.20;95.00;;;;;;5075200;28;20977;-82
2023/03/26 12:15:29;;;;;;;0.40;0.30;;;14.20;96.50;;;;;;5075630;28;20430;-82
2023/03/26 12:17:58;;;;;;;0.40;0.30;;;14.10;93.40;;;;;;5075602;28;20449;-83
2023/03/26 12:20:35;;;;;;;0.40;0.30;;;14.00;93.40;;;;;;5075388;28;20524;-83
2023/03/26 12:23:05;;;;;;;0.30;0.27;;;13.90;94.70;;;;;;5078202;28;20444;-80
2023/03/26 12:25:33;;;;;;;0.80;0.40;;;14.00;94.70;;;;;;5099695;28;20442;-83
2023/03/26 12:28:04;;;;;;;0.40;0.30;;;14.10;95.10;;;;;;5086130;28;20799;-83
2023/03/26 12:30:33;;;;;;;0.30;0.20;;;14.30;95.60;;;;;;5075845;28;20454;-82
2023/03/26 12:33:02;;;;;;;1.23;0.40;;;14.30;93.60;;;;;;5075114;28;20988;-82
2023/03/26 12:35:32;;;;;;;0.40;0.40;;;14.20;95.30;;;;;;5074893;28;20446;-82
2023/03/26 12:38:15;;;;;;;0.40;0.30;;;14.20;94.90;;;;;;5075137;28;20551;-83
2023/03/26 12:40:43;;;;;;;0.70;0.33;;;14.10;95.20;;;;;;5075123;28;20437;-84
2023/03/26 12:43:24;;;;;;;0.40;0.30;;;14.00;94.00;;;;;;5075031;28;20452;-84
2023/03/26 12:45:57;;;;;;;0.40;0.30;;;13.90;93.50;;;;;;5074963;28;20442;-84
2023/03/26 12:48:25;;;;;;;0.40;0.30;;;13.80;93.00;;;;;;5074899;28;20438;-84
2023/03/26 12:51:05;;;;;;;0.40;0.40;;;13.70;94.60;;;;;;5074512;28;20984;-84
2023/03/26 12:53:46;;;;;;;0.87;0.60;;;13.60;93.60;;;;;;5074556;28;20453;-84
2023/03/26 12:56:20;;;;;;;0.40;0.30;;;13.60;94.40;;;;;;5074838;28;20841;-84
2023/03/26 12:59:08;;;;;;;0.40;0.30;;;13.70;93.90;;;;;;5074692;28;20468;-84
2023/03/26 13:01:49;;;;;;;0.50;0.50;;;13.60;92.50;;;;;;5073958;28;20421;-84
2023/03/26 13:04:33;;;;;;;1.43;0.30;;;13.60;93.40;;;;;;5074657;28;20437;-84
2023/03/26 13:07:08;;;;;;;0.30;0.30;;;13.40;93.80;;;;;;5074242;28;20937;-84
2023/03/26 13:09:54;;;;;;;0.30;0.30;;;13.20;93.30;;;;;;5074237;28;21043;-85
2023/03/26 13:12:37;;;;;;;0.77;0.30;;;13.20;94.30;;;;;;5074311;28;20472;-84
2023/03/26 13:15:14;;;;;;;0.30;0.30;;;13.20;94.40;;;;;;5074389;28;20433;-85
2023/03/26 13:17:52;;;;;;;0.40;0.40;;;13.30;92.30;;;;;;5074418;28;20792;-84
2023/03/26 13:20:25;;;;;;;0.30;0.30;;;13.20;93.70;;;;;;5073973;28;20980;-85
2023/03/26 13:23:00;;;;;;;0.40;0.30;;;13.40;94.70;;;;;;5074441;28;20455;-85